메인 페이지
METAR-TAF:

METAR-TAF

공항 :

Gulfport, 미시시피, 미국

위도: 30-24-43N, 경도: 089-04-51W, 고도: 8m

현재 날씨관측

예보는 8분 전, 00:00시(UTC)에 발표되었습니다.
8kt
온도 22°C
습도 94%
기압 1014 hPa
시정: 9.7km
고도 300ft 상공 흐림
안개

METAR: KGPT 240000Z 18008KT 6SM FG OVC003 22/21 A2994 RMK AO2 CIG 002V007 T02170211

시각: 18:08 (00:08 UTC)

예보

예보는 12분 전, 23:56시(UTC)에 발표되었습니다.
예보 대상 시간: 24일 00시부터 24일 24시까지 (UTC)
6kt
시정: 0.4km
고도 200ft 상공
안개
24일 0600시부터 (UTC)
남서10kt
시정: 1.6km
고도 300ft 상공 흐림
소나기, 박무
24일 0800시부터 (UTC)
10kt, 순간 최대 풍속 19kt
시정: 3.2km
고도 700ft 상공 흐림
박무, 시계 내 소나기
24일 1000시부터 (UTC)
서북서8kt
시정: 6.4km
고도 1800ft 상공 구름 많음
박무
24일 1200시부터 (UTC)
북서9kt
시정: 10km
고도 8000ft 상공 구름 조금

TAF: KGPT 232356Z 2400/2424 18006KT 1/4SM FG VV002 FM240600 22010KT 1SM SHRA BR OVC003 FM240800 28010G19KT 2SM BR VCSH OVC007 FM241000 30008KT 4SM BR BKN018 FM241200 32009KT P6SM FEW080

4,000개 이상의 공항 관측 자료 및 예보 (METAR 및 TAF 보고).

지도상에서 검색 가능한 기상관측소가 노란 점과 빨간 점으로 표시되어 있습니다.

기상관측소 명을 보려면 표시 위로 마우스를 이동하세요.

날씨 관측과 예보를 보려면 클릭하세요.

지도 변경 : 확대하려면 엑스 표시가 있는 녹색 버튼, 축소하려면 빼기 표시가 있는 녹색 버튼, 다음 페이지의 지도를 보려면 녹색 화살표를 클릭하세요.


METAR-TAF: